Time;durP1;ratioP1;P1;durP2;ratioP2;P2;SDS_P1;SDS_P2;PMS_P1;PMS_P2;Temp;Humidity;BMP_temperature;BMP_pressure;BME280_temperature;BME280_humidity;BME280_pressure;Samples;Min_cycle;Max_cycle;Signal;HPM_P1;HPM_P2
2023/10/29 00:00:46;;;;;;;5.10;2.65;;;;;;;;;;5041043;28;20025;-88
2023/10/29 00:03:12;;;;;;;3.47;1.90;;;;;;;;;;5044200;28;20025;-89
2023/10/29 00:05:37;;;;;;;9.02;1.92;;;;;;;;;;5048080;28;20089;-88
2023/10/29 00:08:03;;;;;;;2.65;1.55;;;;;;;;;;5046647;28;20645;-89
2023/10/29 00:10:28;;;;;;;3.42;1.80;;;;;;;;;;5045882;28;20103;-88
2023/10/29 00:12:54;;;;;;;2.60;1.65;;;;;;;;;;5044824;28;20166;-88
2023/10/29 00:15:19;;;;;;;3.58;1.90;;;;;;;;;;5043050;28;20076;-88
2023/10/29 00:17:45;;;;;;;3.67;1.85;;;;;;;;;;5041139;28;20044;-88
2023/10/29 00:20:10;;;;;;;4.10;1.88;;;;;;;;;;5046665;28;20045;-89
2023/10/29 00:22:35;;;;;;;2.38;1.83;;;;;;;;;;5042248;28;20115;-88
2023/10/29 00:25:01;;;;;;;4.00;1.60;;;;;;;;;;5039516;28;20025;-89
2023/10/29 00:27:26;;;;;;;4.18;1.88;;;;;;;;;;5037173;28;20038;-89
2023/10/29 00:29:52;;;;;;;4.60;1.58;;;;;;;;;;5046505;28;20021;-89
2023/10/29 00:32:18;;;;;;;6.50;2.03;;;;;;;;;;5043560;28;20033;-88
2023/10/29 00:34:48;;;;;;;4.60;1.80;;;;;;;;;;5041531;28;20041;-88
2023/10/29 00:37:14;;;;;;;4.63;2.33;;;;;;;;;;5042905;28;20037;-88
2023/10/29 00:39:40;;;;;;;9.57;2.97;;;;;;;;;;5042819;28;20057;-89
2023/10/29 00:42:06;;;;;;;4.90;3.13;;;;;;;;;;5034853;28;20399;-88
2023/10/29 00:44:31;;;;;;;8.98;3.22;;;;;;;;;;5038334;28;20032;-88
2023/10/29 00:46:57;;;;;;;5.80;2.80;;;;;;;;;;5035877;28;20041;-88
2023/10/29 00:49:22;;;;;;;2.88;2.17;;;;;;;;;;5038161;28;20078;-88
2023/10/29 00:51:49;;;;;;;5.00;2.30;;;;;;;;;;5041163;28;20495;-89
2023/10/29 00:54:14;;;;;;;4.70;2.83;;;;;;;;;;5039096;28;20583;-89
2023/10/29 00:56:40;;;;;;;2.85;2.10;;;;;;;;;;5042789;28;20061;-88
2023/10/29 00:59:06;;;;;;;5.20;2.75;;;;;;;;;;5047565;28;20034;-88
2023/10/29 01:01:32;;;;;;;4.00;2.65;;;;;;;;;;5039867;28;20415;-88
2023/10/29 01:03:59;;;;;;;3.45;2.25;;;;;;;;;;5043036;28;20041;-89
2023/10/29 01:06:25;;;;;;;5.70;2.42;;;;;;;;;;5048477;28;20090;-88
2023/10/29 01:08:51;;;;;;;2.80;2.50;;;;;;;;;;5040240;28;20014;-88
2023/10/29 01:11:16;;;;;;;7.95;2.63;;;;;;;;;;5044014;28;20041;-88
2023/10/29 01:13:42;;;;;;;5.82;2.70;;;;;;;;;;5054548;28;20038;-88
2023/10/29 01:16:07;;;;;;;5.18;2.40;;;;;;;;;;5062107;28;20036;-88
2023/10/29 01:18:32;;;;;;;12.80;3.15;;;;;;;;;;5058222;28;20035;-90
2023/10/29 01:20:58;;;;;;;14.43;3.72;;;;;;;;;;5043136;28;20152;-88
2023/10/29 01:23:25;;;;;;;7.75;3.25;;;;;;;;;;5030561;28;20057;-89
2023/10/29 01:25:50;;;;;;;7.18;2.83;;;;;;;;;;5046933;28;20090;-87
2023/10/29 01:28:16;;;;;;;5.10;3.15;;;;;;;;;;5037141;28;20045;-88
2023/10/29 01:30:41;;;;;;;7.60;3.63;;;;;;;;;;5040472;28;20040;-88
2023/10/29 01:33:07;;;;;;;6.15;3.15;;;;;;;;;;5047835;28;20025;-88
2023/10/29 01:35:33;;;;;;;3.75;2.50;;;;;;;;;;5042289;28;20021;-87
2023/10/29 01:37:58;;;;;;;6.82;2.65;;;;;;;;;;5046409;28;20048;-87
2023/10/29 01:40:24;;;;;;;4.97;2.50;;;;;;;;;;5045346;28;20060;-88
2023/10/29 01:42:49;;;;;;;6.93;2.53;;;;;;;;;;5042824;28;20105;-87
2023/10/29 01:45:17;;;;;;;2.85;2.30;;;;;;;;;;5041624;28;20063;-88
2023/10/29 01:47:45;;;;;;;3.40;2.20;;;;;;;;;;5048559;28;20025;-87
2023/10/29 01:50:11;;;;;;;2.08;1.88;;;;;;;;;;5045174;28;20558;-87
2023/10/29 01:52:38;;;;;;;2.67;2.10;;;;;;;;;;5041879;28;20122;-88
2023/10/29 01:55:05;;;;;;;2.88;1.50;;;;;;;;;;5043902;28;20043;-89
2023/10/29 01:57:33;;;;;;;2.35;1.42;;;;;;;;;;5042578;28;20112;-87
2023/10/29 01:59:59;;;;;;;5.38;2.10;;;;;;;;;;5037694;28;20025;-89
2023/10/29 02:02:24;;;;;;;5.82;2.75;;;;;;;;;;5034279;28;20044;-89
2023/10/29 02:04:50;;;;;;;4.72;2.45;;;;;;;;;;5034276;28;20029;-88
2023/10/29 02:07:15;;;;;;;3.28;1.90;;;;;;;;;;5033874;28;20109;-87
2023/10/29 02:09:40;;;;;;;2.95;1.92;;;;;;;;;;5037023;28;20029;-88
2023/10/29 02:12:06;;;;;;;3.28;1.70;;;;;;;;;;5040776;28;20026;-89
2023/10/29 02:14:32;;;;;;;5.20;1.80;;;;;;;;;;5040351;28;20024;-88
2023/10/29 02:16:57;;;;;;;1.67;1.58;;;;;;;;;;5039892;28;20040;-87
2023/10/29 02:19:23;;;;;;;1.88;1.48;;;;;;;;;;5044681;28;20025;-88
2023/10/29 02:21:48;;;;;;;4.95;1.58;;;;;;;;;;5041345;28;20029;-88
2023/10/29 02:24:13;;;;;;;3.10;1.25;;;;;;;;;;5039387;28;20092;-89
2023/10/29 02:26:39;;;;;;;1.08;1.08;;;;;;;;;;5041335;28;20048;-88
2023/10/29 02:29:04;;;;;;;1.75;1.65;;;;;;;;;;5044552;28;20049;-87
2023/10/29 02:31:29;;;;;;;3.15;2.00;;;;;;;;;;5039122;28;20072;-88
2023/10/29 02:33:55;;;;;;;2.03;1.17;;;;;;;;;;5040592;28;20048;-87
2023/10/29 02:36:21;;;;;;;1.75;1.13;;;;;;;;;;5040130;28;20013;-88
2023/10/29 02:38:46;;;;;;;8.52;1.50;;;;;;;;;;5048416;28;20017;-87
2023/10/29 02:41:12;;;;;;;2.78;1.02;;;;;;;;;;5037530;28;20037;-89
2023/10/29 02:43:40;;;;;;;1.27;0.90;;;;;;;;;;5032437;28;20033;-87
2023/10/29 02:46:05;;;;;;;5.05;1.10;;;;;;;;;;5034134;28;20060;-87
2023/10/29 02:48:31;;;;;;;0.90;0.80;;;;;;;;;;5034275;28;20037;-88
2023/10/29 02:50:56;;;;;;;0.98;0.98;;;;;;;;;;5036321;28;20020;-88
2023/10/29 02:53:22;;;;;;;4.97;0.93;;;;;;;;;;5037697;28;20032;-88
2023/10/29 02:55:47;;;;;;;1.15;1.05;;;;;;;;;;5038772;28;20059;-88
2023/10/29 02:58:12;;;;;;;0.50;0.50;;;;;;;;;;5040406;28;20033;-88
2023/10/29 03:00:38;;;;;;;6.82;0.88;;;;;;;;;;5044758;28;20045;-88
2023/10/29 03:03:04;;;;;;;0.73;0.73;;;;;;;;;;5043802;28;20104;-89
2023/10/29 03:05:29;;;;;;;0.95;0.88;;;;;;;;;;5047198;28;20032;-87
2023/10/29 03:07:55;;;;;;;0.50;0.50;;;;;;;;;;5046924;28;20692;-88
2023/10/29 03:10:20;;;;;;;0.80;0.80;;;;;;;;;;5044967;28;20042;-88
2023/10/29 03:12:45;;;;;;;1.45;0.85;;;;;;;;;;5047385;28;20033;-89
2023/10/29 03:15:12;;;;;;;0.82;0.82;;;;;;;;;;5047631;28;20029;-89
2023/10/29 03:17:37;;;;;;;0.50;0.50;;;;;;;;;;5051021;28;20425;-88
2023/10/29 03:20:03;;;;;;;3.38;0.80;;;;;;;;;;5046511;28;20072;-88
2023/10/29 03:22:29;;;;;;;0.73;0.73;;;;;;;;;;5043245;28;20352;-88
2023/10/29 03:24:54;;;;;;;0.75;0.75;;;;;;;;;;5049573;28;20510;-88
2023/10/29 03:27:20;;;;;;;2.88;1.10;;;;;;;;;;5048300;28;20511;-88
2023/10/29 03:29:45;;;;;;;8.27;1.10;;;;;;;;;;5045108;28;20017;-88
2023/10/29 03:32:10;;;;;;;8.13;3.25;;;;;;;;;;5043000;28;20033;-88
2023/10/29 03:34:36;;;;;;;19.35;5.05;;;;;;;;;;5040548;28;20144;-87
2023/10/29 03:37:01;;;;;;;5.03;2.92;;;;;;;;;;5046881;28;20040;-88
2023/10/29 03:39:29;;;;;;;3.22;2.30;;;;;;;;;;5045915;28;20037;-88
2023/10/29 03:41:55;;;;;;;7.53;1.75;;;;;;;;;;5048783;28;20032;-88
2023/10/29 03:44:20;;;;;;;1.95;1.25;;;;;;;;;;5044364;28;20045;-88
2023/10/29 03:46:50;;;;;;;4.60;2.53;;;;;;;;;;5047643;28;20065;-88
2023/10/29 03:49:16;;;;;;;0.70;0.70;;;;;;;;;;5043950;28;20087;-88
2023/10/29 03:51:43;;;;;;;1.27;1.17;;;;;;;;;;5050937;28;20033;-88
2023/10/29 03:54:08;;;;;;;1.00;0.70;;;;;;;;;;5044327;28;20055;-88
2023/10/29 03:56:34;;;;;;;0.70;0.70;;;;;;;;;;5044788;28;20021;-87
2023/10/29 03:58:59;;;;;;;1.20;1.05;;;;;;;;;;5046585;28;20037;-88
2023/10/29 04:01:24;;;;;;;0.80;0.80;;;;;;;;;;5052758;28;20040;-88
2023/10/29 04:03:50;;;;;;;0.50;0.50;;;;;;;;;;5047053;28;20033;-87
2023/10/29 04:06:15;;;;;;;0.63;0.63;;;;;;;;;;5050970;28;20135;-88
2023/10/29 04:08:40;;;;;;;1.52;0.68;;;;;;;;;;5059805;28;20021;-88
2023/10/29 04:11:06;;;;;;;0.50;0.50;;;;;;;;;;5052021;28;20101;-88
2023/10/29 04:13:32;;;;;;;3.80;1.38;;;;;;;;;;5048790;28;20518;-88
2023/10/29 04:15:57;;;;;;;9.52;4.50;;;;;;;;;;5046984;28;20034;-87
2023/10/29 04:18:27;;;;;;;13.00;5.65;;;;;;;;;;5046818;28;20049;-87
2023/10/29 04:20:55;;;;;;;7.40;3.50;;;;;;;;;;5041095;28;20017;-89
2023/10/29 04:23:22;;;;;;;2.72;1.02;;;;;;;;;;5044137;28;20041;-88
2023/10/29 04:25:47;;;;;;;1.30;1.17;;;;;;;;;;5039908;28;20047;-88
2023/10/29 04:28:12;;;;;;;1.33;1.23;;;;;;;;;;5039035;28;20085;-87
2023/10/29 04:30:38;;;;;;;1.45;0.70;;;;;;;;;;5046804;28;20040;-88
2023/10/29 04:33:03;;;;;;;0.60;0.60;;;;;;;;;;5042501;28;20017;-89
2023/10/29 04:35:29;;;;;;;1.70;1.20;;;;;;;;;;5042876;28;20025;-87
2023/10/29 04:37:55;;;;;;;0.95;0.95;;;;;;;;;;5047723;28;20040;-88
2023/10/29 04:40:20;;;;;;;1.02;1.00;;;;;;;;;;5040839;28;20033;-88
2023/10/29 04:42:46;;;;;;;4.22;1.10;;;;;;;;;;5038261;28;20455;-89
2023/10/29 04:45:11;;;;;;;1.30;1.20;;;;;;;;;;5038437;28;20052;-89
2023/10/29 04:47:36;;;;;;;19.02;7.03;;;;;;;;;;5036206;28;20021;-88
2023/10/29 04:50:02;;;;;;;4.85;2.85;;;;;;;;;;5039751;28;20030;-88
2023/10/29 04:52:27;;;;;;;4.22;1.35;;;;;;;;;;5037022;28;20044;-88
2023/10/29 04:54:53;;;;;;;3.58;1.17;;;;;;;;;;5041916;28;20037;-88
2023/10/29 04:57:20;;;;;;;0.80;0.80;;;;;;;;;;5042195;28;20064;-89
2023/10/29 04:59:45;;;;;;;1.55;0.88;;;;;;;;;;5039862;28;20032;-88
2023/10/29 05:02:11;;;;;;;0.55;0.55;;;;;;;;;;5042462;28;20021;-89
2023/10/29 05:04:36;;;;;;;0.80;0.80;;;;;;;;;;5043745;28;20033;-88
2023/10/29 05:07:01;;;;;;;0.60;0.60;;;;;;;;;;5040673;28;20025;-88
2023/10/29 05:09:27;;;;;;;1.92;1.40;;;;;;;;;;5041534;28;20032;-89
2023/10/29 05:11:52;;;;;;;1.33;1.23;;;;;;;;;;5034074;28;20028;-89
2023/10/29 05:14:17;;;;;;;8.98;1.40;;;;;;;;;;5041206;28;20111;-88
2023/10/29 05:16:43;;;;;;;4.35;1.50;;;;;;;;;;5030617;28;20037;-89
2023/10/29 05:19:09;;;;;;;1.10;1.00;;;;;;;;;;5034622;28;20706;-90
2023/10/29 05:21:34;;;;;;;1.10;0.93;;;;;;;;;;5029701;28;20045;-89
2023/10/29 05:24:00;;;;;;;1.83;1.23;;;;;;;;;;5025312;28;20029;-88
2023/10/29 05:26:25;;;;;;;1.08;1.02;;;;;;;;;;5030717;28;20029;-89
2023/10/29 05:28:51;;;;;;;1.15;1.10;;;;;;;;;;5045369;28;20045;-88
2023/10/29 05:31:16;;;;;;;3.22;1.00;;;;;;;;;;5042495;28;20025;-89
2023/10/29 05:33:41;;;;;;;1.20;1.10;;;;;;;;;;5039067;28;20033;-87
2023/10/29 05:36:07;;;;;;;2.63;1.08;;;;;;;;;;5038391;28;20025;-88
2023/10/29 05:38:32;;;;;;;0.90;0.90;;;;;;;;;;5041588;28;20057;-88
2023/10/29 05:40:57;;;;;;;1.50;0.93;;;;;;;;;;5039578;28;20033;-88
2023/10/29 05:43:23;;;;;;;6.93;1.90;;;;;;;;;;5036509;28;20083;-88
2023/10/29 05:45:48;;;;;;;11.20;0.98;;;;;;;;;;5036734;28;20079;-87
2023/10/29 05:48:13;;;;;;;1.75;0.50;;;;;;;;;;5039961;28;20248;-87
2023/10/29 05:50:39;;;;;;;0.70;0.70;;;;;;;;;;5036620;28;20033;-87
2023/10/29 05:53:04;;;;;;;1.98;0.88;;;;;;;;;;5038802;28;20037;-88
2023/10/29 05:55:30;;;;;;;5.57;0.75;;;;;;;;;;5035916;28;20046;-88
2023/10/29 05:57:56;;;;;;;1.27;0.93;;;;;;;;;;5034373;28;20025;-88
2023/10/29 06:00:22;;;;;;;1.13;1.00;;;;;;;;;;5031047;28;20084;-88
2023/10/29 06:02:47;;;;;;;0.68;0.68;;;;;;;;;;5029121;28;20025;-89
2023/10/29 06:05:12;;;;;;;0.80;0.80;;;;;;;;;;5032233;28;20053;-88
2023/10/29 06:07:42;;;;;;;4.05;1.33;;;;;;;;;;5029837;28;20034;-88
2023/10/29 06:10:08;;;;;;;1.80;1.35;;;;;;;;;;5033046;28;20041;-88
2023/10/29 06:12:34;;;;;;;2.92;0.85;;;;;;;;;;5040244;28;20044;-88
2023/10/29 06:14:59;;;;;;;1.20;1.10;;;;;;;;;;5033469;28;20254;-89
2023/10/29 06:17:24;;;;;;;0.60;0.60;;;;;;;;;;5037819;28;20145;-88
2023/10/29 06:19:50;;;;;;;0.80;0.70;;;;;;;;;;5038047;28;22484;-88
2023/10/29 06:22:15;;;;;;;7.60;0.80;;;;;;;;;;5034019;28;20037;-89
2023/10/29 06:24:40;;;;;;;1.23;0.98;;;;;;;;;;5037499;28;20036;-88
2023/10/29 06:27:06;;;;;;;0.80;0.80;;;;;;;;;;5037857;28;20400;-88
2023/10/29 06:29:31;;;;;;;0.90;0.90;;;;;;;;;;5032135;28;20558;-89
2023/10/29 06:31:56;;;;;;;0.80;0.80;;;;;;;;;;5027834;28;20117;-88
2023/10/29 06:34:22;;;;;;;1.65;0.98;;;;;;;;;;5032155;28;20111;-88
2023/10/29 06:36:47;;;;;;;5.78;1.00;;;;;;;;;;5032402;28;20025;-89
2023/10/29 06:39:12;;;;;;;1.48;1.00;;;;;;;;;;5029313;28;20032;-90
2023/10/29 06:41:38;;;;;;;1.30;1.20;;;;;;;;;;5028478;28;20034;-90
2023/10/29 06:44:03;;;;;;;0.60;0.60;;;;;;;;;;5040093;28;20029;-89
2023/10/29 06:46:30;;;;;;;0.77;0.77;;;;;;;;;;5039179;28;20528;-88
2023/10/29 06:48:56;;;;;;;0.95;0.88;;;;;;;;;;5042299;28;20083;-88
2023/10/29 06:51:21;;;;;;;2.90;1.33;;;;;;;;;;5043465;28;20029;-88
2023/10/29 06:53:46;;;;;;;2.15;1.35;;;;;;;;;;5060853;28;20012;-87
2023/10/29 06:56:12;;;;;;;10.13;1.58;;;;;;;;;;5058429;28;20482;-90
2023/10/29 06:58:38;;;;;;;1.55;1.45;;;;;;;;;;5064549;28;20080;-88
2023/10/29 07:01:11;;;;;;;1.42;1.33;;;;;;;;;;5057429;28;20034;-88
2023/10/29 07:03:37;;;;;;;1.27;0.93;;;;;;;;;;5068256;28;20036;-89
2023/10/29 07:06:07;;;;;;;1.05;0.93;;;;;;;;;;5064672;28;20028;-88
2023/10/29 07:08:34;;;;;;;2.30;1.17;;;;;;;;;;5058907;28;20109;-91
2023/10/29 07:11:00;;;;;;;0.90;0.90;;;;;;;;;;5046111;28;20519;-88
2023/10/29 07:13:26;;;;;;;0.93;0.93;;;;;;;;;;5038567;28;20124;-88
2023/10/29 07:15:52;;;;;;;1.05;0.95;;;;;;;;;;5036780;28;20567;-88
2023/10/29 07:18:17;;;;;;;1.45;1.00;;;;;;;;;;5040418;28;20404;-87
2023/10/29 07:20:42;;;;;;;2.20;1.13;;;;;;;;;;5043678;28;20128;-87
2023/10/29 07:23:09;;;;;;;2.50;1.08;;;;;;;;;;5038687;28;20464;-87
2023/10/29 07:25:34;;;;;;;2.67;1.25;;;;;;;;;;5037348;28;20496;-88
2023/10/29 07:28:00;;;;;;;0.90;0.90;;;;;;;;;;5038088;28;20037;-87
2023/10/29 07:30:25;;;;;;;0.98;0.98;;;;;;;;;;5037062;28;20041;-88
2023/10/29 07:32:50;;;;;;;2.00;1.48;;;;;;;;;;5042208;28;20032;-88
2023/10/29 07:35:16;;;;;;;2.08;1.25;;;;;;;;;;5038413;28;20148;-87
2023/10/29 07:37:44;;;;;;;1.20;1.10;;;;;;;;;;5038533;28;20033;-87
2023/10/29 07:40:10;;;;;;;1.30;1.20;;;;;;;;;;5039107;28;20424;-87
2023/10/29 07:42:35;;;;;;;1.27;0.70;;;;;;;;;;5037684;28;20029;-89
2023/10/29 07:45:01;;;;;;;2.50;1.00;;;;;;;;;;5034340;28;20026;-87
2023/10/29 07:47:26;;;;;;;1.25;0.98;;;;;;;;;;5037002;28;20044;-87
2023/10/29 07:49:51;;;;;;;2.95;1.38;;;;;;;;;;5032555;28;20033;-88
2023/10/29 07:52:17;;;;;;;5.13;1.02;;;;;;;;;;5032199;28;20056;-87
2023/10/29 07:54:42;;;;;;;2.83;1.10;;;;;;;;;;5036408;28;20259;-86
2023/10/29 07:57:08;;;;;;;1.08;1.00;;;;;;;;;;5035628;28;20067;-89
2023/10/29 07:59:36;;;;;;;1.30;1.20;;;;;;;;;;5038179;28;20033;-87
2023/10/29 08:02:02;;;;;;;2.00;1.02;;;;;;;;;;5033691;28;20112;-88
2023/10/29 08:04:30;;;;;;;2.45;0.85;;;;;;;;;;5033515;28;20056;-88
2023/10/29 08:06:55;;;;;;;1.00;1.00;;;;;;;;;;5018047;28;20037;-86
2023/10/29 08:09:21;;;;;;;3.60;0.65;;;;;;;;;;5035600;28;20034;-86
2023/10/29 08:11:47;;;;;;;1.00;0.90;;;;;;;;;;5035594;28;20037;-87
2023/10/29 08:14:13;;;;;;;2.20;1.02;;;;;;;;;;5029835;28;20031;-87
2023/10/29 08:16:38;;;;;;;1.00;1.00;;;;;;;;;;5028583;28;20117;-86
2023/10/29 08:19:05;;;;;;;0.70;0.70;;;;;;;;;;5023565;28;20134;-87
2023/10/29 08:21:30;;;;;;;1.77;0.90;;;;;;;;;;5039854;28;20051;-87
2023/10/29 08:23:56;;;;;;;0.80;0.80;;;;;;;;;;5035167;28;20029;-86
2023/10/29 08:26:23;;;;;;;0.90;0.80;;;;;;;;;;5036429;28;20044;-87
2023/10/29 08:28:51;;;;;;;0.90;0.90;;;;;;;;;;5039752;28;20087;-85
2023/10/29 08:31:16;;;;;;;0.95;0.90;;;;;;;;;;5034918;28;20128;-86
2023/10/29 08:33:42;;;;;;;0.77;0.77;;;;;;;;;;5036756;28;20060;-85
2023/10/29 08:36:07;;;;;;;1.48;0.70;;;;;;;;;;5042687;28;20096;-85
2023/10/29 08:38:33;;;;;;;0.90;0.90;;;;;;;;;;5041099;28;20052;-85
2023/10/29 08:40:58;;;;;;;3.78;1.10;;;;;;;;;;5041794;28;20100;-86
2023/10/29 08:43:24;;;;;;;6.22;0.90;;;;;;;;;;5048068;28;20029;-86
2023/10/29 08:45:49;;;;;;;4.20;1.13;;;;;;;;;;5046531;28;20037;-86
2023/10/29 08:48:14;;;;;;;1.15;1.05;;;;;;;;;;5047807;28;20545;-86
2023/10/29 08:50:40;;;;;;;1.73;0.90;;;;;;;;;;5042160;28;20053;-86
2023/10/29 08:53:05;;;;;;;1.38;1.10;;;;;;;;;;5045382;28;20030;-85
2023/10/29 08:55:30;;;;;;;4.05;0.93;;;;;;;;;;5039996;28;20053;-87
2023/10/29 08:57:56;;;;;;;0.80;0.80;;;;;;;;;;5043652;28;20029;-86
2023/10/29 09:00:21;;;;;;;1.60;0.95;;;;;;;;;;5047194;28;20521;-85
2023/10/29 09:02:47;;;;;;;5.15;1.25;;;;;;;;;;5039297;28;20026;-86
2023/10/29 09:05:12;;;;;;;1.08;0.80;;;;;;;;;;5042030;28;20048;-85
2023/10/29 09:07:38;;;;;;;1.02;1.00;;;;;;;;;;5039735;28;20475;-84
2023/10/29 09:10:03;;;;;;;2.35;1.55;;;;;;;;;;5038550;28;20038;-84
2023/10/29 09:12:28;;;;;;;0.75;0.75;;;;;;;;;;5044240;28;20060;-85
2023/10/29 09:14:54;;;;;;;3.10;1.10;;;;;;;;;;5040996;28;20102;-85
2023/10/29 09:17:19;;;;;;;0.70;0.70;;;;;;;;;;5039916;28;20038;-84
2023/10/29 09:19:44;;;;;;;0.80;0.80;;;;;;;;;;5033752;28;20103;-85
2023/10/29 09:22:10;;;;;;;2.97;1.13;;;;;;;;;;5039007;28;20037;-86
2023/10/29 09:24:38;;;;;;;3.85;1.20;;;;;;;;;;5042967;28;20040;-85
2023/10/29 09:27:03;;;;;;;1.00;0.88;;;;;;;;;;5042412;28;20025;-85
2023/10/29 09:29:31;;;;;;;0.88;0.88;;;;;;;;;;5040936;28;20017;-86
2023/10/29 09:31:56;;;;;;;1.42;0.85;;;;;;;;;;5042650;28;20030;-85
2023/10/29 09:34:22;;;;;;;0.50;0.50;;;;;;;;;;5036488;28;20109;-86
2023/10/29 09:36:47;;;;;;;2.63;0.70;;;;;;;;;;5046087;28;20055;-87
2023/10/29 09:39:12;;;;;;;3.05;0.93;;;;;;;;;;5044587;28;20025;-86
2023/10/29 09:41:38;;;;;;;0.93;0.80;;;;;;;;;;5047756;28;20100;-87
2023/10/29 09:44:07;;;;;;;1.73;0.80;;;;;;;;;;5051534;28;20047;-87
2023/10/29 09:46:36;;;;;;;2.95;0.85;;;;;;;;;;5040230;28;20041;-87
2023/10/29 09:49:03;;;;;;;1.65;0.80;;;;;;;;;;5043658;28;20396;-88
2023/10/29 09:51:29;;;;;;;0.77;0.77;;;;;;;;;;5041807;28;20040;-88
2023/10/29 09:53:57;;;;;;;0.80;0.80;;;;;;;;;;5029714;28;20073;-89
2023/10/29 09:56:24;;;;;;;0.73;0.73;;;;;;;;;;5027350;28;20167;-89
2023/10/29 09:58:50;;;;;;;0.82;0.82;;;;;;;;;;5039837;28;20039;-88
2023/10/29 10:01:16;;;;;;;1.73;1.17;;;;;;;;;;5035798;28;20106;-89
2023/10/29 10:03:41;;;;;;;3.67;2.17;;;;;;;;;;5038179;28;20033;-89
2023/10/29 10:06:07;;;;;;;2.45;1.85;;;;;;;;;;5036940;28;20025;-88
2023/10/29 10:08:35;;;;;;;1.73;1.50;;;;;;;;;;5036198;28;20025;-88
2023/10/29 10:11:01;;;;;;;3.85;1.20;;;;;;;;;;5039876;28;20105;-88
2023/10/29 10:13:41;;;;;;;1.85;1.42;;;;;;;;;;5040525;28;20072;-88
2023/10/29 10:16:11;;;;;;;1.60;1.42;;;;;;;;;;5036634;28;20396;-88
2023/10/29 10:18:58;;;;;;;1.20;1.10;;;;;;;;;;5032378;28;20038;-88
2023/10/29 10:21:43;;;;;;;2.00;1.60;;;;;;;;;;5044335;28;20056;-88
2023/10/29 10:24:10;;;;;;;1.42;1.33;;;;;;;;;;5037282;28;20029;-89
2023/10/29 10:26:37;;;;;;;2.10;1.45;;;;;;;;;;5040035;28;20086;-88
2023/10/29 10:29:07;;;;;;;5.10;1.77;;;;;;;;;;5041424;28;21420;-88
2023/10/29 10:31:35;;;;;;;2.50;1.30;;;;;;;;;;5038277;28;20041;-87
2023/10/29 10:34:19;;;;;;;1.33;1.20;;;;;;;;;;5032662;28;20037;-87
2023/10/29 10:36:45;;;;;;;;;;;;;;;;;;5038597;28;20044;-87
2023/10/29 10:39:11;;;;;;;2.80;1.67;;;;;;;;;;5037862;28;19920;-86
2023/10/29 10:41:41;;;;;;;1.40;0.90;;;;;;;;;;5036329;28;20408;-88
2023/10/29 10:44:09;;;;;;;1.50;1.30;;;;;;;;;;5038373;28;20045;-86
2023/10/29 10:46:36;;;;;;;1.00;1.00;;;;;;;;;;5047064;28;20076;-88
2023/10/29 10:49:05;;;;;;;0.85;0.82;;;;;;;;;;5042551;28;20041;-88
2023/10/29 10:51:31;;;;;;;2.33;1.60;;;;;;;;;;5029953;28;20037;-87
2023/10/29 10:53:58;;;;;;;1.25;1.15;;;;;;;;;;5034477;28;20036;-87
2023/10/29 10:56:24;;;;;;;1.35;1.10;;;;;;;;;;5030808;28;20037;-86
2023/10/29 10:58:51;;;;;;;1.55;1.42;;;;;;;;;;4995804;28;1051832;-86
2023/10/29 11:01:18;;;;;;;0.80;0.80;;;;;;;;;;5029641;28;20044;-86
2023/10/29 11:03:45;;;;;;;0.80;0.80;;;;;;;;;;5031138;28;20041;-86
2023/10/29 11:06:11;;;;;;;1.85;0.80;;;;;;;;;;5030594;28;20053;-86
2023/10/29 11:08:39;;;;;;;0.73;0.73;;;;;;;;;;5031596;28;20017;-86
2023/10/29 11:11:05;;;;;;;0.70;0.70;;;;;;;;;;5042455;28;20076;-85
2023/10/29 11:13:31;;;;;;;1.13;0.90;;;;;;;;;;5039334;28;20041;-86
2023/10/29 11:15:56;;;;;;;0.95;0.80;;;;;;;;;;5037119;28;20029;-85
2023/10/29 11:18:29;;;;;;;1.15;0.90;;;;;;;;;;5037061;28;20041;-85
2023/10/29 11:20:55;;;;;;;2.85;0.77;;;;;;;;;;5039013;28;20024;-86
2023/10/29 11:23:26;;;;;;;2.65;0.82;;;;;;;;;;5033273;28;20041;-86
2023/10/29 11:26:21;;;;;;;0.60;0.60;;;;;;;;;;5035492;28;20037;-87
2023/10/29 11:28:47;;;;;;;;;;;;;;;;;;5043643;28;20063;-86
2023/10/29 11:31:17;;;;;;;0.70;0.70;;;;;;;;;;5035818;28;19917;-86
2023/10/29 11:33:44;;;;;;;0.70;0.70;;;;;;;;;;5047304;28;20033;-87
2023/10/29 11:36:32;;;;;;;0.60;0.60;;;;;;;;;;5037546;28;20032;-86
2023/10/29 11:39:16;;;;;;;0.77;0.77;;;;;;;;;;5042409;28;20078;-87
2023/10/29 11:41:46;;;;;;;2.17;0.60;;;;;;;;;;5041795;28;20049;-87
2023/10/29 11:44:17;;;;;;;0.77;0.75;;;;;;;;;;5036445;28;20083;-86
2023/10/29 11:46:54;;;;;;;3.78;1.02;;;;;;;;;;5041286;28;20033;-88
2023/10/29 11:49:20;;;;;;;5.60;0.88;;;;;;;;;;5035938;28;20037;-86
2023/10/29 11:51:54;;;;;;;0.80;0.80;;;;;;;;;;5033019;28;20041;-86
2023/10/29 11:54:20;;;;;;;0.93;0.85;;;;;;;;;;5033997;28;20034;-87
2023/10/29 11:56:47;;;;;;;0.70;0.70;;;;;;;;;;5034137;28;20026;-86
2023/10/29 11:59:13;;;;;;;2.97;0.90;;;;;;;;;;5032586;28;20033;-86
2023/10/29 12:01:38;;;;;;;1.17;0.90;;;;;;;;;;5033337;28;20042;-87
2023/10/29 12:04:04;;;;;;;1.23;0.90;;;;;;;;;;5037335;28;20171;-87
2023/10/29 12:06:43;;;;;;;0.80;0.80;;;;;;;;;;5032460;28;20030;-86
2023/10/29 12:09:25;;;;;;;0.70;0.70;;;;;;;;;;5036405;28;20479;-86
2023/10/29 12:11:52;;;;;;;1.58;0.80;;;;;;;;;;5040774;28;20021;-86
2023/10/29 12:14:40;;;;;;;2.90;1.05;;;;;;;;;;5032263;28;20289;-87
2023/10/29 12:17:10;;;;;;;3.13;0.80;;;;;;;;;;5037779;28;20076;-88
2023/10/29 12:19:36;;;;;;;2.38;0.95;;;;;;;;;;5040410;28;20033;-85
2023/10/29 12:22:03;;;;;;;3.00;1.17;;;;;;;;;;5041520;28;20500;-86
2023/10/29 12:24:30;;;;;;;1.63;1.17;;;;;;;;;;5048437;28;20032;-86
2023/10/29 12:26:56;;;;;;;1.00;1.00;;;;;;;;;;5051360;28;20032;-87
2023/10/29 12:29:22;;;;;;;1.65;0.90;;;;;;;;;;5044791;28;20063;-86
2023/10/29 12:31:47;;;;;;;0.85;0.75;;;;;;;;;;5044075;28;20037;-87
2023/10/29 12:34:12;;;;;;;0.80;0.80;;;;;;;;;;5042287;28;20052;-86
2023/10/29 12:36:38;;;;;;;0.95;0.82;;;;;;;;;;5040501;28;20033;-86
2023/10/29 12:39:04;;;;;;;0.90;0.90;;;;;;;;;;5045052;28;20391;-86
2023/10/29 12:41:31;;;;;;;3.03;1.17;;;;;;;;;;5036865;28;20029;-86
2023/10/29 12:43:57;;;;;;;1.30;1.20;;;;;;;;;;5036118;28;20439;-86
2023/10/29 12:46:24;;;;;;;2.67;1.75;;;;;;;;;;5034998;28;20136;-86
2023/10/29 12:49:00;;;;;;;4.45;2.00;;;;;;;;;;5035569;28;20040;-87
2023/10/29 12:51:31;;;;;;;3.10;2.70;;;;;;;;;;5036856;28;20029;-86
2023/10/29 12:54:12;;;;;;;1.73;1.30;;;;;;;;;;5036483;28;20032;-88
2023/10/29 12:57:01;;;;;;;1.33;1.23;;;;;;;;;;5034006;28;20045;-87
2023/10/29 12:59:30;;;;;;;4.05;1.10;;;;;;;;;;5038024;28;20049;-86
2023/10/29 13:01:58;;;;;;;1.10;1.00;;;;;;;;;;5040903;28;20038;-86
2023/10/29 13:04:25;;;;;;;2.92;1.40;;;;;;;;;;5037341;28;20041;-86
2023/10/29 13:06:53;;;;;;;1.58;1.15;;;;;;;;;;5039208;28;20021;-86
2023/10/29 13:09:20;;;;;;;4.05;1.30;;;;;;;;;;5042750;28;20520;-87
2023/10/29 13:11:51;;;;;;;1.88;1.10;;;;;;;;;;5047358;28;20463;-86
2023/10/29 13:14:17;;;;;;;1.30;1.20;;;;;;;;;;5038921;28;20624;-85
2023/10/29 13:16:43;;;;;;;1.63;1.50;;;;;;;;;;5039848;28;20056;-85
2023/10/29 13:19:11;;;;;;;18.50;7.15;;;;;;;;;;5044511;28;20049;-86
2023/10/29 13:21:36;;;;;;;6.55;3.40;;;;;;;;;;5043715;28;20029;-85
2023/10/29 13:24:03;;;;;;;2.28;1.60;;;;;;;;;;5041035;28;20048;-87
2023/10/29 13:26:28;;;;;;;1.38;1.00;;;;;;;;;;5043017;28;20585;-85
2023/10/29 13:28:54;;;;;;;1.88;1.30;;;;;;;;;;5040047;28;20064;-85
2023/10/29 13:31:19;;;;;;;2.35;1.30;;;;;;;;;;5036036;28;20037;-86
2023/10/29 13:33:45;;;;;;;5.05;1.23;;;;;;;;;;5032461;28;20044;-86
2023/10/29 13:36:11;;;;;;;3.22;1.27;;;;;;;;;;5031656;28;20057;-87
2023/10/29 13:38:38;;;;;;;4.13;1.45;;;;;;;;;;5033260;28;20047;-86
2023/10/29 13:41:03;;;;;;;1.45;1.35;;;;;;;;;;5043468;28;20029;-87
2023/10/29 13:43:29;;;;;;;5.10;1.17;;;;;;;;;;5044472;28;20040;-86
2023/10/29 13:46:02;;;;;;;1.00;1.00;;;;;;;;;;5043758;28;20037;-87
2023/10/29 13:48:28;;;;;;;1.42;1.20;;;;;;;;;;5037861;28;20029;-86
2023/10/29 13:50:54;;;;;;;1.20;1.10;;;;;;;;;;5040487;28;20033;-87
2023/10/29 13:53:20;;;;;;;1.30;1.20;;;;;;;;;;5035500;28;20032;-86
2023/10/29 13:55:45;;;;;;;3.47;1.35;;;;;;;;;;5037300;28;20504;-87
2023/10/29 13:58:10;;;;;;;1.48;1.38;;;;;;;;;;5038815;28;20504;-86
2023/10/29 14:00:36;;;;;;;1.50;1.35;;;;;;;;;;5033519;28;20033;-87
2023/10/29 14:03:01;;;;;;;1.73;1.20;;;;;;;;;;5033192;28;20395;-87
2023/10/29 14:05:27;;;;;;;1.23;1.10;;;;;;;;;;5032611;28;20067;-87
2023/10/29 14:07:54;;;;;;;2.50;1.40;;;;;;;;;;5032707;28;20330;-87
2023/10/29 14:10:20;;;;;;;2.58;1.50;;;;;;;;;;5034890;28;20400;-87
2023/10/29 14:12:46;;;;;;;0.90;0.90;;;;;;;;;;5043117;28;20048;-86
2023/10/29 14:15:12;;;;;;;1.70;1.50;;;;;;;;;;5039301;28;20079;-86
2023/10/29 14:17:37;;;;;;;1.23;1.13;;;;;;;;;;5037167;28;20022;-86
2023/10/29 14:20:03;;;;;;;6.68;1.55;;;;;;;;;;5040398;28;20034;-87
2023/10/29 14:22:29;;;;;;;2.00;1.23;;;;;;;;;;5039952;28;20041;-86
2023/10/29 14:24:55;;;;;;;2.50;1.50;;;;;;;;;;5037103;28;20024;-87
2023/10/29 14:27:22;;;;;;;1.65;1.48;;;;;;;;;;5038728;28;20029;-87
2023/10/29 14:29:47;;;;;;;1.35;1.25;;;;;;;;;;5043208;28;20022;-87
2023/10/29 14:32:13;;;;;;;2.28;1.20;;;;;;;;;;5038492;28;20041;-87
2023/10/29 14:34:38;;;;;;;4.32;1.60;;;;;;;;;;5037229;28;20064;-86
2023/10/29 14:37:03;;;;;;;1.38;1.30;;;;;;;;;;5036121;28;20080;-87
2023/10/29 14:39:29;;;;;;;2.75;1.40;;;;;;;;;;5040478;28;20029;-89